sensor_id;sensor_type;location;lat;lon;timestamp;temperature;humidity
10443;DHT22;5269;51.146;16.986;2024-03-17T00:00:44;6.10;99.90
10443;DHT22;5269;51.146;16.986;2024-03-17T00:03:14;6.00;99.90
10443;DHT22;5269;51.146;16.986;2024-03-17T00:05:44;6.00;1.00
10443;DHT22;5269;51.146;16.986;2024-03-17T00:08:15;6.00;99.90
10443;DHT22;5269;51.146;16.986;2024-03-17T00:10:42;6.00;1.00
10443;DHT22;5269;51.146;16.986;2024-03-17T00:13:12;5.90;99.90
10443;DHT22;5269;51.146;16.986;2024-03-17T00:15:39;5.90;99.90
10443;DHT22;5269;51.146;16.986;2024-03-17T00:18:08;5.90;99.90
10443;DHT22;5269;51.146;16.986;2024-03-17T00:20:36;5.90;1.00
10443;DHT22;5269;51.146;16.986;2024-03-17T00:23:09;5.90;1.00
10443;DHT22;5269;51.146;16.986;2024-03-17T00:25:38;5.80;3.70
10443;DHT22;5269;51.146;16.986;2024-03-17T00:28:08;5.70;99.90
10443;DHT22;5269;51.146;16.986;2024-03-17T00:30:36;5.70;1.00
10443;DHT22;5269;51.146;16.986;2024-03-17T00:33:06;5.80;1.00
10443;DHT22;5269;51.146;16.986;2024-03-17T00:35:34;5.70;1.00
10443;DHT22;5269;51.146;16.986;2024-03-17T00:38:04;5.70;1.00
10443;DHT22;5269;51.146;16.986;2024-03-17T00:40:39;5.60;99.90
10443;DHT22;5269;51.146;16.986;2024-03-17T00:43:11;5.60;99.90
10443;DHT22;5269;51.146;16.986;2024-03-17T00:45:38;5.70;1.00
10443;DHT22;5269;51.146;16.986;2024-03-17T00:48:08;5.60;61.20
10443;DHT22;5269;51.146;16.986;2024-03-17T00:50:36;5.60;99.90
10443;DHT22;5269;51.146;16.986;2024-03-17T00:53:06;5.60;1.00
10443;DHT22;5269;51.146;16.986;2024-03-17T00:55:34;5.50;99.90
10443;DHT22;5269;51.146;16.986;2024-03-17T00:58:07;5.50;99.90
10443;DHT22;5269;51.146;16.986;2024-03-17T01:00:34;5.40;1.00
10443;DHT22;5269;51.146;16.986;2024-03-17T01:03:05;5.40;99.90
10443;DHT22;5269;51.146;16.986;2024-03-17T01:05:32;5.40;90.30
10443;DHT22;5269;51.146;16.986;2024-03-17T01:08:02;5.30;99.90
10443;DHT22;5269;51.146;16.986;2024-03-17T01:10:29;5.20;1.00
10443;DHT22;5269;51.146;16.986;2024-03-17T01:12:59;5.30;99.90
10443;DHT22;5269;51.146;16.986;2024-03-17T01:15:29;5.20;1.00
10443;DHT22;5269;51.146;16.986;2024-03-17T01:17:59;5.20;99.90
10443;DHT22;5269;51.146;16.986;2024-03-17T01:20:27;5.20;99.90
10443;DHT22;5269;51.146;16.986;2024-03-17T01:22:57;5.10;1.00
10443;DHT22;5269;51.146;16.986;2024-03-17T01:25:24;5.00;1.00
10443;DHT22;5269;51.146;16.986;2024-03-17T01:27:56;5.10;1.00
10443;DHT22;5269;51.146;16.986;2024-03-17T01:30:23;5.10;1.00
10443;DHT22;5269;51.146;16.986;2024-03-17T01:32:56;5.00;26.40
10443;DHT22;5269;51.146;16.986;2024-03-17T01:35:23;5.00;1.00
10443;DHT22;5269;51.146;16.986;2024-03-17T01:37:52;5.00;1.00
10443;DHT22;5269;51.146;16.986;2024-03-17T01:40:19;5.00;1.00
10443;DHT22;5269;51.146;16.986;2024-03-17T01:42:50;4.90;1.00
10443;DHT22;5269;51.146;16.986;2024-03-17T01:45:27;4.90;1.00
10443;DHT22;5269;51.146;16.986;2024-03-17T01:48:02;4.90;99.90
10443;DHT22;5269;51.146;16.986;2024-03-17T01:50:32;4.80;99.90
10443;DHT22;5269;51.146;16.986;2024-03-17T01:53:04;4.90;99.90
10443;DHT22;5269;51.146;16.986;2024-03-17T01:55:31;4.70;99.90
10443;DHT22;5269;51.146;16.986;2024-03-17T01:58:02;4.70;1.00
10443;DHT22;5269;51.146;16.986;2024-03-17T02:00:29;4.70;99.90
10443;DHT22;5269;51.146;16.986;2024-03-17T02:03:04;4.60;1.00
10443;DHT22;5269;51.146;16.986;2024-03-17T02:05:31;4.60;1.00
10443;DHT22;5269;51.146;16.986;2024-03-17T02:08:01;4.60;99.90
10443;DHT22;5269;51.146;16.986;2024-03-17T02:10:28;4.60;1.00
10443;DHT22;5269;51.146;16.986;2024-03-17T02:12:58;4.60;1.00
10443;DHT22;5269;51.146;16.986;2024-03-17T02:15:26;4.60;99.90
10443;DHT22;5269;51.146;16.986;2024-03-17T02:17:56;4.60;1.00
10443;DHT22;5269;51.146;16.986;2024-03-17T02:20:26;4.60;1.00
10443;DHT22;5269;51.146;16.986;2024-03-17T02:23:10;4.60;99.90
10443;DHT22;5269;51.146;16.986;2024-03-17T02:25:41;4.60;15.10
10443;DHT22;5269;51.146;16.986;2024-03-17T02:28:07;4.70;99.90
10443;DHT22;5269;51.146;16.986;2024-03-17T02:30:38;4.70;99.90
10443;DHT22;5269;51.146;16.986;2024-03-17T02:33:05;4.60;1.00
10443;DHT22;5269;51.146;16.986;2024-03-17T02:35:35;4.60;1.00
10443;DHT22;5269;51.146;16.986;2024-03-17T02:38:03;4.60;72.20
10443;DHT22;5269;51.146;16.986;2024-03-17T02:40:37;4.50;99.90
10443;DHT22;5269;51.146;16.986;2024-03-17T02:43:04;4.50;1.00
10443;DHT22;5269;51.146;16.986;2024-03-17T02:45:34;4.40;1.00
10443;DHT22;5269;51.146;16.986;2024-03-17T02:48:05;4.40;99.90
10443;DHT22;5269;51.146;16.986;2024-03-17T02:50:34;4.30;99.90
10443;DHT22;5269;51.146;16.986;2024-03-17T02:53:04;4.30;99.90
10443;DHT22;5269;51.146;16.986;2024-03-17T02:55:36;4.30;99.90
10443;DHT22;5269;51.146;16.986;2024-03-17T02:58:07;4.20;99.90
10443;DHT22;5269;51.146;16.986;2024-03-17T03:00:37;4.20;99.90
10443;DHT22;5269;51.146;16.986;2024-03-17T03:03:08;4.20;99.90
10443;DHT22;5269;51.146;16.986;2024-03-17T03:05:37;4.20;99.90
10443;DHT22;5269;51.146;16.986;2024-03-17T03:08:08;4.20;99.90
10443;DHT22;5269;51.146;16.986;2024-03-17T03:10:43;4.10;99.90
10443;DHT22;5269;51.146;16.986;2024-03-17T03:13:14;4.10;99.90
10443;DHT22;5269;51.146;16.986;2024-03-17T03:15:43;4.00;99.90
10443;DHT22;5269;51.146;16.986;2024-03-17T03:18:13;4.00;1.00
10443;DHT22;5269;51.146;16.986;2024-03-17T03:20:43;4.00;1.00
10443;DHT22;5269;51.146;16.986;2024-03-17T03:23:12;3.90;1.00
10443;DHT22;5269;51.146;16.986;2024-03-17T03:25:45;3.90;99.90
10443;DHT22;5269;51.146;16.986;2024-03-17T03:28:15;3.90;99.90
10443;DHT22;5269;51.146;16.986;2024-03-17T03:30:45;3.90;99.90
10443;DHT22;5269;51.146;16.986;2024-03-17T03:33:14;3.80;1.00
10443;DHT22;5269;51.146;16.986;2024-03-17T03:35:44;3.80;1.00
10443;DHT22;5269;51.146;16.986;2024-03-17T03:38:14;3.70;1.00
10443;DHT22;5269;51.146;16.986;2024-03-17T03:40:46;3.70;1.00
10443;DHT22;5269;51.146;16.986;2024-03-17T03:43:17;3.70;76.00
10443;DHT22;5269;51.146;16.986;2024-03-17T03:45:46;3.70;1.00
10443;DHT22;5269;51.146;16.986;2024-03-17T03:48:17;3.60;99.90
10443;DHT22;5269;51.146;16.986;2024-03-17T03:50:46;3.60;1.00
10443;DHT22;5269;51.146;16.986;2024-03-17T03:53:16;3.60;99.90
10443;DHT22;5269;51.146;16.986;2024-03-17T03:55:49;3.60;99.90
10443;DHT22;5269;51.146;16.986;2024-03-17T03:58:19;3.50;99.90
10443;DHT22;5269;51.146;16.986;2024-03-17T04:00:49;3.50;1.00
10443;DHT22;5269;51.146;16.986;2024-03-17T04:03:19;3.50;1.00
10443;DHT22;5269;51.146;16.986;2024-03-17T04:05:48;3.50;99.90
10443;DHT22;5269;51.146;16.986;2024-03-17T04:08:20;3.40;99.90
10443;DHT22;5269;51.146;16.986;2024-03-17T04:10:53;3.50;1.00
10443;DHT22;5269;51.146;16.986;2024-03-17T04:13:23;3.40;1.00
10443;DHT22;5269;51.146;16.986;2024-03-17T04:15:52;3.40;1.00
10443;DHT22;5269;51.146;16.986;2024-03-17T04:18:23;3.40;1.00
10443;DHT22;5269;51.146;16.986;2024-03-17T04:20:57;3.40;19.90
10443;DHT22;5269;51.146;16.986;2024-03-17T04:23:28;3.30;5.00
10443;DHT22;5269;51.146;16.986;2024-03-17T04:26:02;3.30;1.00
10443;DHT22;5269;51.146;16.986;2024-03-17T04:28:33;3.30;1.00
10443;DHT22;5269;51.146;16.986;2024-03-17T04:31:04;3.20;99.90
10443;DHT22;5269;51.146;16.986;2024-03-17T04:33:34;3.20;99.90
10443;DHT22;5269;51.146;16.986;2024-03-17T04:36:05;3.20;1.00
10443;DHT22;5269;51.146;16.986;2024-03-17T04:38:35;3.20;1.00
10443;DHT22;5269;51.146;16.986;2024-03-17T04:41:08;3.20;1.00
10443;DHT22;5269;51.146;16.986;2024-03-17T04:43:38;3.20;1.00
10443;DHT22;5269;51.146;16.986;2024-03-17T04:46:08;3.10;99.90
10443;DHT22;5269;51.146;16.986;2024-03-17T04:48:39;3.20;99.90
10443;DHT22;5269;51.146;16.986;2024-03-17T04:51:15;3.20;99.90
10443;DHT22;5269;51.146;16.986;2024-03-17T04:53:45;3.10;1.00
10443;DHT22;5269;51.146;16.986;2024-03-17T04:56:17;3.10;1.00
10443;DHT22;5269;51.146;16.986;2024-03-17T04:58:47;3.10;99.90
10443;DHT22;5269;51.146;16.986;2024-03-17T05:01:18;3.10;99.90
10443;DHT22;5269;51.146;16.986;2024-03-17T05:03:48;3.10;99.90
10443;DHT22;5269;51.146;16.986;2024-03-17T05:06:20;3.00;1.00
10443;DHT22;5269;51.146;16.986;2024-03-17T05:08:50;3.00;99.90
10443;DHT22;5269;51.146;16.986;2024-03-17T05:11:22;3.00;1.00
10443;DHT22;5269;51.146;16.986;2024-03-17T05:13:53;3.00;99.90
10443;DHT22;5269;51.146;16.986;2024-03-17T05:16:24;3.00;99.90
10443;DHT22;5269;51.146;16.986;2024-03-17T05:18:55;3.10;1.00
10443;DHT22;5269;51.146;16.986;2024-03-17T05:21:25;3.10;99.90
10443;DHT22;5269;51.146;16.986;2024-03-17T05:23:56;3.20;1.00
10443;DHT22;5269;51.146;16.986;2024-03-17T05:26:29;3.20;1.00
10443;DHT22;5269;51.146;16.986;2024-03-17T05:28:59;3.20;1.00
10443;DHT22;5269;51.146;16.986;2024-03-17T05:31:29;3.10;1.00
10443;DHT22;5269;51.146;16.986;2024-03-17T05:33:59;3.20;99.90
10443;DHT22;5269;51.146;16.986;2024-03-17T05:36:29;3.20;1.00
10443;DHT22;5269;51.146;16.986;2024-03-17T05:39:00;3.30;1.00
10443;DHT22;5269;51.146;16.986;2024-03-17T05:41:32;3.30;1.00
10443;DHT22;5269;51.146;16.986;2024-03-17T05:44:03;3.30;1.00
10443;DHT22;5269;51.146;16.986;2024-03-17T05:46:33;3.30;99.90
10443;DHT22;5269;51.146;16.986;2024-03-17T05:49:03;3.30;99.90
10443;DHT22;5269;51.146;16.986;2024-03-17T05:51:33;3.30;99.90
10443;DHT22;5269;51.146;16.986;2024-03-17T05:54:03;3.40;52.20
10443;DHT22;5269;51.146;16.986;2024-03-17T05:56:36;3.40;1.00
10443;DHT22;5269;51.146;16.986;2024-03-17T05:59:05;3.50;1.00
10443;DHT22;5269;51.146;16.986;2024-03-17T06:01:35;3.60;1.00
10443;DHT22;5269;51.146;16.986;2024-03-17T06:04:06;3.60;1.00
10443;DHT22;5269;51.146;16.986;2024-03-17T06:06:36;3.60;99.90
10443;DHT22;5269;51.146;16.986;2024-03-17T06:09:05;3.70;99.90
10443;DHT22;5269;51.146;16.986;2024-03-17T06:11:40;3.80;99.90
10443;DHT22;5269;51.146;16.986;2024-03-17T06:14:10;3.80;68.20
10443;DHT22;5269;51.146;16.986;2024-03-17T06:16:41;3.80;46.40
10443;DHT22;5269;51.146;16.986;2024-03-17T06:19:11;3.90;1.00
10443;DHT22;5269;51.146;16.986;2024-03-17T06:21:41;4.00;1.00
10443;DHT22;5269;51.146;16.986;2024-03-17T06:24:10;4.00;99.90
10443;DHT22;5269;51.146;16.986;2024-03-17T06:26:42;4.10;99.90
10443;DHT22;5269;51.146;16.986;2024-03-17T06:29:13;4.10;99.90
10443;DHT22;5269;51.146;16.986;2024-03-17T06:31:43;4.20;99.90
10443;DHT22;5269;51.146;16.986;2024-03-17T06:34:13;4.20;1.00
10443;DHT22;5269;51.146;16.986;2024-03-17T06:36:44;4.20;1.00
10443;DHT22;5269;51.146;16.986;2024-03-17T06:39:15;4.30;1.00
10443;DHT22;5269;51.146;16.986;2024-03-17T06:41:49;4.40;1.00
10443;DHT22;5269;51.146;16.986;2024-03-17T06:44:18;4.40;1.00
10443;DHT22;5269;51.146;16.986;2024-03-17T06:46:51;4.50;1.00
10443;DHT22;5269;51.146;16.986;2024-03-17T06:49:21;4.50;1.00
10443;DHT22;5269;51.146;16.986;2024-03-17T06:51:51;4.60;1.00
10443;DHT22;5269;51.146;16.986;2024-03-17T06:54:22;4.60;99.90
10443;DHT22;5269;51.146;16.986;2024-03-17T06:56:54;4.50;1.00
10443;DHT22;5269;51.146;16.986;2024-03-17T06:59:24;4.60;1.00
10443;DHT22;5269;51.146;16.986;2024-03-17T07:01:54;4.60;99.90
10443;DHT22;5269;51.146;16.986;2024-03-17T07:04:23;4.60;99.90
10443;DHT22;5269;51.146;16.986;2024-03-17T07:06:53;4.80;99.90
10443;DHT22;5269;51.146;16.986;2024-03-17T07:09:23;4.90;99.90
10443;DHT22;5269;51.146;16.986;2024-03-17T07:11:55;4.90;99.90
10443;DHT22;5269;51.146;16.986;2024-03-17T07:14:26;4.90;99.90
10443;DHT22;5269;51.146;16.986;2024-03-17T07:16:58;5.00;99.90
10443;DHT22;5269;51.146;16.986;2024-03-17T07:19:29;5.20;1.00
10443;DHT22;5269;51.146;16.986;2024-03-17T07:22:00;5.10;1.00
10443;DHT22;5269;51.146;16.986;2024-03-17T07:24:30;5.10;1.00
10443;DHT22;5269;51.146;16.986;2024-03-17T07:27:03;5.10;1.00
10443;DHT22;5269;51.146;16.986;2024-03-17T07:29:35;5.10;1.00
10443;DHT22;5269;51.146;16.986;2024-03-17T07:32:06;5.10;1.00
10443;DHT22;5269;51.146;16.986;2024-03-17T07:34:36;5.20;1.00
10443;DHT22;5269;51.146;16.986;2024-03-17T07:37:06;5.20;1.00
10443;DHT22;5269;51.146;16.986;2024-03-17T07:39:36;5.10;1.00
10443;DHT22;5269;51.146;16.986;2024-03-17T07:42:08;5.20;1.00
10443;DHT22;5269;51.146;16.986;2024-03-17T07:44:40;5.30;1.00
10443;DHT22;5269;51.146;16.986;2024-03-17T07:47:13;5.30;1.00
10443;DHT22;5269;51.146;16.986;2024-03-17T07:49:46;5.40;1.00
10443;DHT22;5269;51.146;16.986;2024-03-17T07:52:16;5.50;1.00
10443;DHT22;5269;51.146;16.986;2024-03-17T07:54:46;5.50;1.00
10443;DHT22;5269;51.146;16.986;2024-03-17T07:57:18;5.50;1.00
10443;DHT22;5269;51.146;16.986;2024-03-17T07:59:49;5.30;1.00
10443;DHT22;5269;51.146;16.986;2024-03-17T08:02:19;5.30;1.00
10443;DHT22;5269;51.146;16.986;2024-03-17T08:04:49;5.50;1.00
10443;DHT22;5269;51.146;16.986;2024-03-17T08:07:19;5.70;1.00
10443;DHT22;5269;51.146;16.986;2024-03-17T08:09:48;5.40;1.00
10443;DHT22;5269;51.146;16.986;2024-03-17T08:12:21;5.50;1.00
10443;DHT22;5269;51.146;16.986;2024-03-17T08:14:50;5.40;1.00
10443;DHT22;5269;51.146;16.986;2024-03-17T08:17:20;5.50;1.00
10443;DHT22;5269;51.146;16.986;2024-03-17T08:19:50;5.50;1.00
10443;DHT22;5269;51.146;16.986;2024-03-17T08:22:20;5.30;1.00
10443;DHT22;5269;51.146;16.986;2024-03-17T08:24:50;5.30;1.00
10443;DHT22;5269;51.146;16.986;2024-03-17T08:27:23;5.50;1.00
10443;DHT22;5269;51.146;16.986;2024-03-17T08:29:53;5.60;1.00
10443;DHT22;5269;51.146;16.986;2024-03-17T08:32:23;5.60;1.00
10443;DHT22;5269;51.146;16.986;2024-03-17T08:34:53;5.70;1.00
10443;DHT22;5269;51.146;16.986;2024-03-17T08:37:23;5.80;1.00
10443;DHT22;5269;51.146;16.986;2024-03-17T08:39:54;5.80;1.00
10443;DHT22;5269;51.146;16.986;2024-03-17T08:42:27;5.50;1.00
10443;DHT22;5269;51.146;16.986;2024-03-17T08:44:56;5.40;1.00
10443;DHT22;5269;51.146;16.986;2024-03-17T08:47:26;5.50;1.00
10443;DHT22;5269;51.146;16.986;2024-03-17T08:49:56;5.80;1.00
10443;DHT22;5269;51.146;16.986;2024-03-17T08:52:30;6.20;1.00
10443;DHT22;5269;51.146;16.986;2024-03-17T08:55:00;6.30;99.90
10443;DHT22;5269;51.146;16.986;2024-03-17T08:57:38;6.50;99.90
10443;DHT22;5269;51.146;16.986;2024-03-17T09:00:09;6.60;99.90
10443;DHT22;5269;51.146;16.986;2024-03-17T09:02:41;6.10;99.90
10443;DHT22;5269;51.146;16.986;2024-03-17T09:05:15;6.10;99.90
10443;DHT22;5269;51.146;16.986;2024-03-17T09:08:27;6.30;99.90
10443;DHT22;5269;51.146;16.986;2024-03-17T09:10:59;6.60;99.90
10443;DHT22;5269;51.146;16.986;2024-03-17T09:13:31;6.50;99.90
10443;DHT22;5269;51.146;16.986;2024-03-17T09:16:02;6.70;99.90
10443;DHT22;5269;51.146;16.986;2024-03-17T09:18:33;6.80;99.90
10443;DHT22;5269;51.146;16.986;2024-03-17T09:21:05;6.50;99.90
10443;DHT22;5269;51.146;16.986;2024-03-17T09:23:35;6.20;99.90
10443;DHT22;5269;51.146;16.986;2024-03-17T09:26:07;6.30;99.90
10443;DHT22;5269;51.146;16.986;2024-03-17T09:28:41;6.30;99.90
10443;DHT22;5269;51.146;16.986;2024-03-17T09:31:12;6.20;99.90
10443;DHT22;5269;51.146;16.986;2024-03-17T09:33:42;6.20;99.90
10443;DHT22;5269;51.146;16.986;2024-03-17T09:36:11;6.20;99.90
10443;DHT22;5269;51.146;16.986;2024-03-17T09:38:41;6.30;99.90
10443;DHT22;5269;51.146;16.986;2024-03-17T09:41:20;6.30;99.90
10443;DHT22;5269;51.146;16.986;2024-03-17T09:43:54;6.30;99.90
10443;DHT22;5269;51.146;16.986;2024-03-17T09:46:27;6.50;99.90
10443;DHT22;5269;51.146;16.986;2024-03-17T09:48:58;6.70;99.90
10443;DHT22;5269;51.146;16.986;2024-03-17T09:51:28;6.60;99.90
10443;DHT22;5269;51.146;16.986;2024-03-17T09:54:06;6.60;99.90
10443;DHT22;5269;51.146;16.986;2024-03-17T09:56:45;6.60;99.90
10443;DHT22;5269;51.146;16.986;2024-03-17T09:59:19;7.00;99.90
10443;DHT22;5269;51.146;16.986;2024-03-17T10:01:50;7.00;99.90
10443;DHT22;5269;51.146;16.986;2024-03-17T10:04:31;6.80;99.90
10443;DHT22;5269;51.146;16.986;2024-03-17T10:07:03;6.80;99.90
10443;DHT22;5269;51.146;16.986;2024-03-17T10:09:33;6.90;99.90
10443;DHT22;5269;51.146;16.986;2024-03-17T10:12:04;7.10;99.90
10443;DHT22;5269;51.146;16.986;2024-03-17T10:14:39;7.20;99.90
10443;DHT22;5269;51.146;16.986;2024-03-17T10:17:10;7.40;99.90
10443;DHT22;5269;51.146;16.986;2024-03-17T10:19:40;7.40;99.90
10443;DHT22;5269;51.146;16.986;2024-03-17T10:22:12;7.40;99.90
10443;DHT22;5269;51.146;16.986;2024-03-17T10:24:42;7.10;99.90
10443;DHT22;5269;51.146;16.986;2024-03-17T10:27:11;6.90;99.90
10443;DHT22;5269;51.146;16.986;2024-03-17T10:29:56;6.70;99.90
10443;DHT22;5269;51.146;16.986;2024-03-17T10:32:43;6.70;99.90
10443;DHT22;5269;51.146;16.986;2024-03-17T10:35:26;6.80;99.90
10443;DHT22;5269;51.146;16.986;2024-03-17T10:38:01;6.90;99.90
10443;DHT22;5269;51.146;16.986;2024-03-17T10:40:32;6.80;99.90
10443;DHT22;5269;51.146;16.986;2024-03-17T10:43:06;6.80;99.90
10443;DHT22;5269;51.146;16.986;2024-03-17T10:45:48;6.70;99.90
10443;DHT22;5269;51.146;16.986;2024-03-17T10:48:19;6.50;99.90
10443;DHT22;5269;51.146;16.986;2024-03-17T10:50:53;6.60;99.90
10443;DHT22;5269;51.146;16.986;2024-03-17T10:53:30;6.90;99.90
10443;DHT22;5269;51.146;16.986;2024-03-17T10:56:04;7.00;99.90
10443;DHT22;5269;51.146;16.986;2024-03-17T10:58:36;7.20;99.90
10443;DHT22;5269;51.146;16.986;2024-03-17T11:01:20;7.30;99.90
10443;DHT22;5269;51.146;16.986;2024-03-17T11:04:06;7.40;99.90
10443;DHT22;5269;51.146;16.986;2024-03-17T11:09:53;7.70;99.90
10443;DHT22;5269;51.146;16.986;2024-03-17T11:12:41;7.80;99.90
10443;DHT22;5269;51.146;16.986;2024-03-17T11:15:39;7.60;99.90
10443;DHT22;5269;51.146;16.986;2024-03-17T11:18:33;8.00;99.90
10443;DHT22;5269;51.146;16.986;2024-03-17T11:21:24;7.70;99.90
10443;DHT22;5269;51.146;16.986;2024-03-17T11:24:02;8.00;99.90
10443;DHT22;5269;51.146;16.986;2024-03-17T11:26:42;8.10;99.90
10443;DHT22;5269;51.146;16.986;2024-03-17T11:29:30;8.20;99.90
10443;DHT22;5269;51.146;16.986;2024-03-17T11:32:30;8.40;99.90
10443;DHT22;5269;51.146;16.986;2024-03-17T11:35:26;8.30;99.90
10443;DHT22;5269;51.146;16.986;2024-03-17T11:38:04;7.70;99.90
10443;DHT22;5269;51.146;16.986;2024-03-17T11:40:34;7.50;99.90
10443;DHT22;5269;51.146;16.986;2024-03-17T11:43:32;7.50;99.90
10443;DHT22;5269;51.146;16.986;2024-03-17T11:46:34;8.00;99.90
10443;DHT22;5269;51.146;16.986;2024-03-17T11:49:58;8.20;99.90
10443;DHT22;5269;51.146;16.986;2024-03-17T11:54:27;8.20;99.90
10443;DHT22;5269;51.146;16.986;2024-03-17T11:56:23;7.70;99.90
10443;DHT22;5269;51.146;16.986;2024-03-17T11:59:32;8.00;99.90
10443;DHT22;5269;51.146;16.986;2024-03-17T12:32:02;7.90;99.90
10443;DHT22;5269;51.146;16.986;2024-03-17T12:35:12;7.90;99.90
10443;DHT22;5269;51.146;16.986;2024-03-17T12:37:52;8.00;99.90
10443;DHT22;5269;51.146;16.986;2024-03-17T12:47:05;8.00;99.90
10443;DHT22;5269;51.146;16.986;2024-03-17T12:53:04;8.00;99.90
10443;DHT22;5269;51.146;16.986;2024-03-17T13:10:22;8.70;99.90
10443;DHT22;5269;51.146;16.986;2024-03-17T13:13:04;8.80;99.90
10443;DHT22;5269;51.146;16.986;2024-03-17T13:15:46;9.10;99.90
10443;DHT22;5269;51.146;16.986;2024-03-17T13:18:41;9.50;99.90
10443;DHT22;5269;51.146;16.986;2024-03-17T13:21:33;8.90;99.90
10443;DHT22;5269;51.146;16.986;2024-03-17T13:24:09;8.70;99.90
10443;DHT22;5269;51.146;16.986;2024-03-17T13:26:42;8.20;99.90
10443;DHT22;5269;51.146;16.986;2024-03-17T13:29:18;8.20;99.90
10443;DHT22;5269;51.146;16.986;2024-03-17T13:31:52;8.00;99.90
10443;DHT22;5269;51.146;16.986;2024-03-17T13:34:29;8.00;99.90
10443;DHT22;5269;51.146;16.986;2024-03-17T13:37:09;8.20;99.90
10443;DHT22;5269;51.146;16.986;2024-03-17T13:39:50;8.60;99.90
10443;DHT22;5269;51.146;16.986;2024-03-17T13:45:52;8.00;99.90
10443;DHT22;5269;51.146;16.986;2024-03-17T13:48:22;8.20;99.90
10443;DHT22;5269;51.146;16.986;2024-03-17T13:50:53;8.40;99.90
10443;DHT22;5269;51.146;16.986;2024-03-17T13:53:26;8.40;99.90
10443;DHT22;5269;51.146;16.986;2024-03-17T13:55:56;8.30;99.90
10443;DHT22;5269;51.146;16.986;2024-03-17T13:58:27;8.40;99.90
10443;DHT22;5269;51.146;16.986;2024-03-17T14:01:01;8.50;99.90
10443;DHT22;5269;51.146;16.986;2024-03-17T14:03:33;8.50;99.90
10443;DHT22;5269;51.146;16.986;2024-03-17T14:06:05;8.60;99.90
10443;DHT22;5269;51.146;16.986;2024-03-17T14:08:35;8.40;99.90
10443;DHT22;5269;51.146;16.986;2024-03-17T14:11:05;8.60;99.90
10443;DHT22;5269;51.146;16.986;2024-03-17T14:13:35;8.50;99.90
10443;DHT22;5269;51.146;16.986;2024-03-17T14:16:07;8.30;99.90
10443;DHT22;5269;51.146;16.986;2024-03-17T14:18:37;8.30;99.90
10443;DHT22;5269;51.146;16.986;2024-03-17T14:21:08;8.50;99.90
10443;DHT22;5269;51.146;16.986;2024-03-17T14:23:41;8.70;99.90
10443;DHT22;5269;51.146;16.986;2024-03-17T14:26:14;8.80;99.90
10443;DHT22;5269;51.146;16.986;2024-03-17T14:28:44;9.10;99.90
10443;DHT22;5269;51.146;16.986;2024-03-17T14:31:16;9.20;99.90
10443;DHT22;5269;51.146;16.986;2024-03-17T14:33:49;9.30;99.90
10443;DHT22;5269;51.146;16.986;2024-03-17T14:36:24;9.40;99.90
10443;DHT22;5269;51.146;16.986;2024-03-17T14:38:56;9.50;99.90
10443;DHT22;5269;51.146;16.986;2024-03-17T14:41:29;9.40;99.90
10443;DHT22;5269;51.146;16.986;2024-03-17T14:44:02;9.00;99.90
10443;DHT22;5269;51.146;16.986;2024-03-17T14:46:37;8.70;99.90
10443;DHT22;5269;51.146;16.986;2024-03-17T14:49:07;8.60;99.90
10443;DHT22;5269;51.146;16.986;2024-03-17T14:51:37;8.80;99.90
10443;DHT22;5269;51.146;16.986;2024-03-17T14:54:10;8.60;99.90
10443;DHT22;5269;51.146;16.986;2024-03-17T14:56:44;8.60;99.90
10443;DHT22;5269;51.146;16.986;2024-03-17T14:59:17;8.60;99.90
10443;DHT22;5269;51.146;16.986;2024-03-17T15:02:05;8.50;99.90
10443;DHT22;5269;51.146;16.986;2024-03-17T15:04:45;8.70;99.90
10443;DHT22;5269;51.146;16.986;2024-03-17T15:07:14;8.50;99.90
10443;DHT22;5269;51.146;16.986;2024-03-17T15:09:47;8.30;99.90
10443;DHT22;5269;51.146;16.986;2024-03-17T15:12:17;8.20;99.90
10443;DHT22;5269;51.146;16.986;2024-03-17T15:14:55;8.10;99.90
10443;DHT22;5269;51.146;16.986;2024-03-17T15:17:27;8.10;99.90
10443;DHT22;5269;51.146;16.986;2024-03-17T15:19:58;8.10;99.90
10443;DHT22;5269;51.146;16.986;2024-03-17T15:22:28;8.00;99.90
10443;DHT22;5269;51.146;16.986;2024-03-17T15:25:02;8.10;99.90
10443;DHT22;5269;51.146;16.986;2024-03-17T15:27:32;8.10;99.90
10443;DHT22;5269;51.146;16.986;2024-03-17T15:30:02;8.00;99.90
10443;DHT22;5269;51.146;16.986;2024-03-17T15:32:31;8.00;99.90
10443;DHT22;5269;51.146;16.986;2024-03-17T15:35:04;8.00;99.90
10443;DHT22;5269;51.146;16.986;2024-03-17T15:37:34;8.20;99.90
10443;DHT22;5269;51.146;16.986;2024-03-17T15:40:05;8.30;99.90
10443;DHT22;5269;51.146;16.986;2024-03-17T15:42:37;8.30;99.90
10443;DHT22;5269;51.146;16.986;2024-03-17T15:45:08;8.10;99.90
10443;DHT22;5269;51.146;16.986;2024-03-17T15:47:41;7.90;99.90
10443;DHT22;5269;51.146;16.986;2024-03-17T15:50:11;7.80;99.90
10443;DHT22;5269;51.146;16.986;2024-03-17T15:52:42;7.90;99.90
10443;DHT22;5269;51.146;16.986;2024-03-17T15:55:12;7.90;99.90
10443;DHT22;5269;51.146;16.986;2024-03-17T15:57:42;8.00;99.90
10443;DHT22;5269;51.146;16.986;2024-03-17T16:00:14;8.00;99.90
10443;DHT22;5269;51.146;16.986;2024-03-17T16:02:47;8.00;99.90
10443;DHT22;5269;51.146;16.986;2024-03-17T16:05:19;7.90;99.90
10443;DHT22;5269;51.146;16.986;2024-03-17T16:07:49;7.80;99.90
10443;DHT22;5269;51.146;16.986;2024-03-17T16:10:20;7.80;99.90
10443;DHT22;5269;51.146;16.986;2024-03-17T16:12:51;7.80;99.90
10443;DHT22;5269;51.146;16.986;2024-03-17T16:15:21;7.80;99.90
10443;DHT22;5269;51.146;16.986;2024-03-17T16:17:54;7.60;99.90
10443;DHT22;5269;51.146;16.986;2024-03-17T16:23:29;7.60;99.90
10443;DHT22;5269;51.146;16.986;2024-03-17T16:26:01;7.50;99.90
10443;DHT22;5269;51.146;16.986;2024-03-17T16:28:31;7.40;99.90
10443;DHT22;5269;51.146;16.986;2024-03-17T16:31:01;7.30;99.90
10443;DHT22;5269;51.146;16.986;2024-03-17T16:33:35;7.20;99.90
10443;DHT22;5269;51.146;16.986;2024-03-17T16:36:07;7.20;99.90
10443;DHT22;5269;51.146;16.986;2024-03-17T16:38:40;7.10;99.90
10443;DHT22;5269;51.146;16.986;2024-03-17T16:41:11;7.10;99.90
10443;DHT22;5269;51.146;16.986;2024-03-17T16:43:52;7.00;99.90
10443;DHT22;5269;51.146;16.986;2024-03-17T16:46:56;6.90;99.90
10443;DHT22;5269;51.146;16.986;2024-03-17T16:49:32;6.80;99.90
10443;DHT22;5269;51.146;16.986;2024-03-17T16:52:03;6.80;99.90
10443;DHT22;5269;51.146;16.986;2024-03-17T16:54:34;6.80;99.90
10443;DHT22;5269;51.146;16.986;2024-03-17T16:57:09;6.70;99.90
10443;DHT22;5269;51.146;16.986;2024-03-17T16:59:40;6.60;99.90
10443;DHT22;5269;51.146;16.986;2024-03-17T17:02:14;6.60;99.90
10443;DHT22;5269;51.146;16.986;2024-03-17T17:04:47;6.50;99.90
10443;DHT22;5269;51.146;16.986;2024-03-17T17:07:17;6.40;99.90
10443;DHT22;5269;51.146;16.986;2024-03-17T17:09:47;6.40;99.90
10443;DHT22;5269;51.146;16.986;2024-03-17T17:12:17;6.30;99.90
10443;DHT22;5269;51.146;16.986;2024-03-17T17:14:48;6.30;99.90
10443;DHT22;5269;51.146;16.986;2024-03-17T17:17:18;6.30;99.90
10443;DHT22;5269;51.146;16.986;2024-03-17T17:19:50;6.20;99.90
10443;DHT22;5269;51.146;16.986;2024-03-17T17:22:20;6.20;99.90
10443;DHT22;5269;51.146;16.986;2024-03-17T17:24:51;6.10;99.90
10443;DHT22;5269;51.146;16.986;2024-03-17T17:27:20;6.10;99.90
10443;DHT22;5269;51.146;16.986;2024-03-17T17:29:50;6.10;99.90